createdAt,value
2019-01-02T08:34:12.129Z,43.00
2019-01-02T08:38:54.844Z,44.20
2019-01-02T08:41:24.252Z,45.80
2019-01-02T08:44:02.951Z,46.40
2019-01-02T08:46:38.206Z,46.50
2019-01-02T08:49:10.592Z,46.60
2019-01-02T08:51:46.206Z,46.40
2019-01-02T08:54:31.867Z,46.10
2019-01-02T08:57:01.485Z,46.30
2019-01-02T08:59:33.702Z,46.40
2019-01-02T09:02:19.398Z,46.30
2019-01-02T09:07:37.225Z,45.50
2019-01-02T09:13:09.699Z,44.20
2019-01-02T09:15:51.278Z,44.40
2019-01-02T09:18:32.975Z,44.60
2019-01-02T09:21:08.439Z,44.80
2019-01-02T09:23:50.161Z,44.70
2019-01-02T09:26:34.942Z,44.50
2019-01-02T09:29:04.307Z,44.10
2019-01-02T09:34:39.626Z,43.50
2019-01-02T09:37:11.968Z,42.90
2019-01-02T09:52:17.091Z,44.90
2019-01-02T09:55:03.106Z,43.20
2019-01-02T09:57:32.782Z,44.20
2019-01-02T10:00:05.005Z,43.80
2019-01-02T10:02:34.324Z,43.20
2019-01-02T10:05:20.138Z,43.00
2019-01-02T10:07:55.471Z,42.70
2019-01-02T10:10:42.839Z,42.60
2019-01-02T10:13:24.352Z,42.60
2019-01-02T10:16:11.896Z,42.30
2019-01-02T10:18:44.289Z,42.20
2019-01-02T10:21:31.610Z,42.00
2019-01-02T10:24:03.669Z,41.80
2019-01-02T10:26:32.933Z,42.00
2019-01-02T10:29:17.426Z,41.50
2019-01-02T10:32:06.041Z,41.30
2019-01-02T10:34:35.280Z,41.20
2019-01-02T10:37:10.783Z,41.90
2019-01-02T10:39:45.878Z,41.20
2019-01-02T10:42:15.224Z,40.70
2019-01-02T10:44:47.289Z,40.60
2019-01-02T10:47:16.619Z,40.50
2019-01-02T10:49:48.818Z,40.40
2019-01-02T10:52:18.218Z,40.30
2019-01-02T10:54:48.491Z,40.20
2019-01-02T10:57:33.097Z,40.20
2019-01-02T11:00:05.647Z,40.10
2019-01-02T11:02:43.946Z,40.20
2019-01-02T11:05:25.334Z,40.20
2019-01-02T11:07:54.643Z,40.30
2019-01-02T11:10:42.009Z,40.60
2019-01-02T11:13:11.383Z,41.10
2019-01-02T11:15:46.546Z,41.70
2019-01-02T11:21:26.802Z,42.90
2019-01-02T11:24:12.775Z,41.40
2019-01-02T11:26:44.755Z,41.50
2019-01-02T11:29:14.030Z,40.90
2019-01-02T11:31:58.431Z,40.80
2019-01-02T11:34:33.796Z,40.70
2019-01-02T11:37:05.948Z,40.40
2019-01-02T11:39:41.398Z,40.20
2019-01-02T11:42:13.508Z,40.20
2019-01-02T11:44:42.915Z,40.30
2019-01-02T11:47:10.618Z,40.60
2019-01-02T11:49:38.231Z,40.50
2019-01-02T11:52:05.848Z,40.40
2019-01-02T11:54:33.763Z,40.10
